createdAt,value
2018-11-07T00:00:34.231Z,12.63
2018-11-07T00:01:34.180Z,12.57
2018-11-07T00:02:34.118Z,12.62
2018-11-07T00:03:34.062Z,12.57
2018-11-07T00:04:34.005Z,12.59
2018-11-07T00:05:33.956Z,12.59
2018-11-07T00:06:33.896Z,12.59
2018-11-07T00:07:33.836Z,12.60
2018-11-07T00:08:33.876Z,12.62
2018-11-07T00:09:33.727Z,12.56
2018-11-07T00:10:33.673Z,12.59
2018-11-07T00:11:33.611Z,12.57
2018-11-07T00:12:33.555Z,12.54
2018-11-07T00:13:33.502Z,12.60
2018-11-07T00:14:33.440Z,12.60
2018-11-07T00:15:33.384Z,12.56
2018-11-07T00:16:33.328Z,12.57
2018-11-07T00:17:33.273Z,12.56
2018-11-07T00:18:33.219Z,12.56
2018-11-07T00:19:33.222Z,12.54
2018-11-07T00:20:33.103Z,12.56
2018-11-07T00:21:33.048Z,12.59
2018-11-07T00:22:32.994Z,12.62
2018-11-07T00:23:32.938Z,12.57
2018-11-07T00:24:32.878Z,12.57
2018-11-07T00:25:32.828Z,12.54
2018-11-07T00:26:32.889Z,12.59
2018-11-07T00:27:32.709Z,12.60
2018-11-07T00:28:32.653Z,12.56
2018-11-07T00:29:32.594Z,12.56
2018-11-07T00:30:32.542Z,12.57
2018-11-07T00:31:32.487Z,12.59
2018-11-07T00:32:32.426Z,12.63
2018-11-07T00:33:32.372Z,12.59
2018-11-07T00:34:32.312Z,12.56
2018-11-07T00:35:32.257Z,12.59
2018-11-07T00:36:32.204Z,12.60
2018-11-07T00:37:32.142Z,12.60
2018-11-07T00:38:32.086Z,12.45
2018-11-07T00:39:32.034Z,12.56
2018-11-07T00:40:31.975Z,12.59
2018-11-07T00:41:31.916Z,12.57
2018-11-07T00:42:31.863Z,12.59
2018-11-07T00:43:31.809Z,12.54
2018-11-07T00:44:31.748Z,12.60
2018-11-07T00:45:31.692Z,12.49
2018-11-07T00:46:31.636Z,12.49
2018-11-07T00:47:31.579Z,12.59
2018-11-07T00:48:31.523Z,12.54
2018-11-07T00:49:31.466Z,12.60
2018-11-07T00:50:31.408Z,12.51
2018-11-07T00:51:31.356Z,12.42
2018-11-07T00:52:31.298Z,12.52
2018-11-07T00:53:31.250Z,12.51
2018-11-07T00:54:31.193Z,12.46
2018-11-07T00:55:31.127Z,12.48
2018-11-07T00:56:31.073Z,12.49
2018-11-07T00:57:31.015Z,12.54
2018-11-07T00:58:30.963Z,12.46
2018-11-07T00:59:30.900Z,12.42
2018-11-07T01:00:30.849Z,12.56
2018-11-07T01:01:30.787Z,12.45
2018-11-07T01:02:30.733Z,12.48
2018-11-07T01:03:30.677Z,12.46
2018-11-07T01:04:30.618Z,12.46
2018-11-07T01:05:30.560Z,12.48
2018-11-07T01:06:30.505Z,12.42
2018-11-07T01:07:30.447Z,12.44
2018-11-07T01:08:30.392Z,12.42
2018-11-07T01:09:30.394Z,12.45
2018-11-07T01:10:30.279Z,12.45
2018-11-07T01:11:30.227Z,12.45
2018-11-07T01:12:30.167Z,12.45
2018-11-07T01:13:30.111Z,12.46
2018-11-07T01:14:30.052Z,12.42
2018-11-07T01:15:30.001Z,12.49
2018-11-07T01:16:29.981Z,12.45
2018-11-07T01:17:29.883Z,12.45
2018-11-07T01:18:29.827Z,12.49
2018-11-07T01:19:29.775Z,12.46
2018-11-07T01:20:29.716Z,12.49
2018-11-07T01:21:29.658Z,12.42
2018-11-07T01:22:29.604Z,12.48
2018-11-07T01:23:29.545Z,12.44
2018-11-07T01:24:29.489Z,12.44
2018-11-07T01:25:29.432Z,12.48
2018-11-07T01:26:29.375Z,12.42
2018-11-07T01:27:29.320Z,12.42
2018-11-07T01:28:29.266Z,12.42
2018-11-07T01:29:29.205Z,12.46
2018-11-07T01:30:29.149Z,12.46
2018-11-07T01:31:29.094Z,12.42
2018-11-07T01:32:29.036Z,12.45
2018-11-07T01:33:28.981Z,12.46
2018-11-07T01:34:28.926Z,12.46
2018-11-07T01:35:28.867Z,12.44
2018-11-07T01:36:28.810Z,12.45
2018-11-07T01:37:28.754Z,12.48
2018-11-07T01:38:28.697Z,12.46
2018-11-07T01:39:28.641Z,12.42
2018-11-07T01:40:28.587Z,12.38
2018-11-07T01:41:28.526Z,12.39
2018-11-07T01:42:28.471Z,12.42
2018-11-07T01:43:28.415Z,12.42
2018-11-07T01:44:28.360Z,12.39
2018-11-07T01:45:28.300Z,12.42
2018-11-07T01:46:28.244Z,12.48
2018-11-07T01:47:28.190Z,12.48
2018-11-07T01:48:28.132Z,12.37
2018-11-07T01:49:28.074Z,12.37
2018-11-07T01:50:28.019Z,12.48
2018-11-07T01:51:27.962Z,12.39
2018-11-07T01:52:27.909Z,12.33
2018-11-07T01:53:27.849Z,12.31
2018-11-07T01:54:27.791Z,12.33
2018-11-07T01:55:27.738Z,12.30
2018-11-07T01:56:27.679Z,12.33
2018-11-07T01:57:27.622Z,12.34
2018-11-07T01:58:27.567Z,12.37
2018-11-07T01:59:27.510Z,12.45
2018-11-07T02:00:27.456Z,12.34
2018-11-07T02:01:27.397Z,12.33
2018-11-07T02:02:27.340Z,12.45
2018-11-07T02:03:27.285Z,12.33
2018-11-07T02:04:27.227Z,12.34
2018-11-07T02:05:27.169Z,12.34
2018-11-07T02:06:27.116Z,12.31
2018-11-07T02:07:27.058Z,12.31
2018-11-07T02:08:27.003Z,12.41
2018-11-07T02:09:26.943Z,12.33
2018-11-07T02:10:26.887Z,12.39
2018-11-07T02:11:26.831Z,12.34
2018-11-07T02:12:26.776Z,12.39
2018-11-07T02:13:26.719Z,12.33
2018-11-07T02:14:26.660Z,12.37
2018-11-07T02:15:26.604Z,12.34
2018-11-07T02:16:26.550Z,12.34
2018-11-07T02:17:26.490Z,12.34
2018-11-07T02:18:26.434Z,12.31
2018-11-07T02:19:26.377Z,12.38
2018-11-07T02:20:26.322Z,12.34
2018-11-07T02:21:26.265Z,12.37
2018-11-07T02:22:26.208Z,12.34
2018-11-07T02:23:26.153Z,12.38
2018-11-07T02:24:26.095Z,12.38
2018-11-07T02:25:26.037Z,12.38
2018-11-07T02:26:26.009Z,12.31
2018-11-07T02:27:25.926Z,12.41
2018-11-07T02:28:25.869Z,12.38
2018-11-07T02:29:25.812Z,12.33
2018-11-07T02:30:25.756Z,12.38
2018-11-07T02:31:25.699Z,12.33
2018-11-07T02:32:25.643Z,12.34
2018-11-07T02:33:25.586Z,12.34
2018-11-07T02:34:25.530Z,12.34
2018-11-07T02:35:25.472Z,12.34
2018-11-07T02:36:25.417Z,12.29
2018-11-07T02:37:25.358Z,12.34
2018-11-07T02:38:25.303Z,12.31
2018-11-07T02:39:25.252Z,12.29
2018-11-07T02:40:25.189Z,12.31
2018-11-07T02:41:25.131Z,12.27
2018-11-07T02:42:25.075Z,12.29
2018-11-07T02:43:25.019Z,12.30
2018-11-07T02:44:24.965Z,12.23
2018-11-07T02:45:24.907Z,12.30
2018-11-07T02:46:24.849Z,12.30
2018-11-07T02:47:24.792Z,12.34
2018-11-07T02:48:24.738Z,12.31
2018-11-07T02:49:24.678Z,12.33
2018-11-07T02:50:24.625Z,12.29
2018-11-07T02:51:24.567Z,12.31
2018-11-07T02:52:24.510Z,12.26
2018-11-07T02:53:24.490Z,12.33
2018-11-07T02:54:24.398Z,12.34
2018-11-07T02:55:24.340Z,12.29
2018-11-07T02:56:24.288Z,12.26
2018-11-07T02:57:24.225Z,12.30
2018-11-07T02:58:24.173Z,12.24
2018-11-07T02:59:24.115Z,12.34
2018-11-07T03:00:24.056Z,12.34
2018-11-07T03:01:24.059Z,12.29
2018-11-07T03:02:23.943Z,12.24
2018-11-07T03:03:23.885Z,12.26
2018-11-07T03:04:23.832Z,12.23
2018-11-07T03:05:23.773Z,12.26
2018-11-07T03:06:23.719Z,12.26
2018-11-07T03:07:23.661Z,12.29
2018-11-07T03:08:23.611Z,12.26
2018-11-07T03:09:23.546Z,12.23
2018-11-07T03:10:23.537Z,12.19
2018-11-07T03:11:23.432Z,12.26
2018-11-07T03:12:23.377Z,12.21
2018-11-07T03:13:23.320Z,12.21
2018-11-07T03:14:23.265Z,12.24
2018-11-07T03:15:23.210Z,12.23
2018-11-07T03:16:23.150Z,12.23
2018-11-07T03:17:23.092Z,12.29
2018-11-07T03:18:23.036Z,12.27
2018-11-07T03:19:22.980Z,12.23
2018-11-07T03:20:22.924Z,12.21
2018-11-07T03:21:22.865Z,12.20
2018-11-07T03:22:22.812Z,12.23
2018-11-07T03:23:22.752Z,12.27
2018-11-07T03:24:22.697Z,12.30
2018-11-07T03:25:22.639Z,12.21
2018-11-07T03:26:22.584Z,12.15
2018-11-07T03:27:22.527Z,12.21
2018-11-07T03:28:22.473Z,12.26
2018-11-07T03:29:22.415Z,12.16
2018-11-07T03:30:22.355Z,12.16
2018-11-07T03:31:22.300Z,12.26
2018-11-07T03:32:22.250Z,12.13
2018-11-07T03:33:22.185Z,12.21
2018-11-07T03:34:22.130Z,12.21
2018-11-07T03:35:22.072Z,12.19
2018-11-07T03:36:22.018Z,12.16
2018-11-07T03:37:21.958Z,12.13
2018-11-07T03:38:21.901Z,12.15
2018-11-07T03:39:21.845Z,12.19
2018-11-07T03:40:21.795Z,12.12
2018-11-07T03:41:21.732Z,12.13
2018-11-07T03:42:21.675Z,12.24
2018-11-07T03:43:21.621Z,12.16
2018-11-07T03:44:21.563Z,12.08
2018-11-07T03:45:21.505Z,12.15
2018-11-07T03:46:21.451Z,12.12
2018-11-07T03:47:21.392Z,12.15
2018-11-07T03:48:21.339Z,12.20
2018-11-07T03:49:21.278Z,12.15
2018-11-07T03:50:21.227Z,12.13
2018-11-07T03:51:21.166Z,12.15
2018-11-07T03:52:21.108Z,12.19
2018-11-07T03:53:21.127Z,12.09
2018-11-07T03:54:20.997Z,12.08
2018-11-07T03:55:20.938Z,12.11
2018-11-07T03:56:20.883Z,12.19
2018-11-07T03:57:20.825Z,12.12
2018-11-07T03:58:20.773Z,12.11
2018-11-07T03:59:20.716Z,12.08
2018-11-07T04:00:20.655Z,12.12
2018-11-07T04:01:20.597Z,12.19
2018-11-07T04:02:20.546Z,12.11
2018-11-07T04:03:20.489Z,12.09
2018-11-07T04:04:20.432Z,12.20
2018-11-07T04:05:20.369Z,12.15
2018-11-07T04:06:20.320Z,12.16
2018-11-07T04:07:20.262Z,12.12
2018-11-07T04:08:20.210Z,12.11
2018-11-07T04:09:20.153Z,12.12
2018-11-07T04:10:20.091Z,12.04
2018-11-07T04:11:20.037Z,12.08
2018-11-07T04:12:19.978Z,12.09
2018-11-07T04:13:19.928Z,12.06
2018-11-07T04:14:19.864Z,12.06
2018-11-07T04:15:19.808Z,12.06
2018-11-07T04:16:19.752Z,12.06
2018-11-07T04:17:20.646Z,12.09
2018-11-07T04:18:19.636Z,12.04
2018-11-07T04:19:19.582Z,12.04
2018-11-07T04:20:19.519Z,12.02
2018-11-07T04:21:19.465Z,12.05
2018-11-07T04:22:19.411Z,12.02
2018-11-07T04:23:19.354Z,12.06
2018-11-07T04:24:19.297Z,12.05
2018-11-07T04:25:19.241Z,12.05
2018-11-07T04:26:19.188Z,12.06
2018-11-07T04:27:19.135Z,12.02
2018-11-07T04:28:19.069Z,12.08
2018-11-07T04:29:19.014Z,11.99
2018-11-07T04:30:18.959Z,12.04
2018-11-07T04:31:18.897Z,12.06
2018-11-07T04:32:18.841Z,12.06
2018-11-07T04:33:18.785Z,12.04
2018-11-07T04:34:18.727Z,12.09
2018-11-07T04:35:18.671Z,12.11
2018-11-07T04:36:18.616Z,12.05
2018-11-07T04:37:18.556Z,12.01
2018-11-07T04:38:18.502Z,12.05
2018-11-07T04:39:18.500Z,12.01
2018-11-07T04:40:18.386Z,11.97
2018-11-07T04:41:18.330Z,12.06
2018-11-07T04:42:18.275Z,11.94
2018-11-07T04:43:18.218Z,12.08
2018-11-07T04:44:18.160Z,12.06
2018-11-07T04:45:18.102Z,11.94
2018-11-07T04:46:18.045Z,11.96
2018-11-07T04:47:17.991Z,12.02
2018-11-07T04:48:17.939Z,12.01
2018-11-07T04:49:17.873Z,11.89
2018-11-07T04:50:17.822Z,12.05
2018-11-07T04:51:17.760Z,11.93
2018-11-07T04:52:17.706Z,12.01
2018-11-07T04:53:17.646Z,11.96
2018-11-07T04:54:17.594Z,12.02
2018-11-07T04:55:17.536Z,11.89
2018-11-07T04:56:17.477Z,11.97
2018-11-07T04:57:17.421Z,12.05
2018-11-07T04:58:17.363Z,11.93
2018-11-07T04:59:17.305Z,11.97
2018-11-07T05:00:17.304Z,12.04
2018-11-07T05:01:17.195Z,12.01
2018-11-07T05:02:17.136Z,12.02
2018-11-07T05:03:17.078Z,11.99
2018-11-07T05:04:17.022Z,11.96
2018-11-07T05:05:16.967Z,11.97
2018-11-07T05:06:16.910Z,11.97
2018-11-07T05:07:16.855Z,11.87
2018-11-07T05:08:16.795Z,11.96
2018-11-07T05:09:16.737Z,11.96
2018-11-07T05:10:16.680Z,11.97
2018-11-07T05:11:16.626Z,11.90
2018-11-07T05:12:16.567Z,12.05
2018-11-07T05:13:16.512Z,12.04
2018-11-07T05:14:16.455Z,11.99
2018-11-07T05:15:16.397Z,11.96
2018-11-07T05:16:16.340Z,11.94
2018-11-07T05:17:16.281Z,11.90
2018-11-07T05:18:16.224Z,11.86
2018-11-07T05:19:16.167Z,11.93
2018-11-07T05:20:16.113Z,11.85
2018-11-07T05:21:16.057Z,11.87
2018-11-07T05:22:15.998Z,11.94
2018-11-07T05:23:15.952Z,11.94
2018-11-07T05:24:15.884Z,11.87
2018-11-07T05:25:15.828Z,11.83
2018-11-07T05:26:15.863Z,11.83
2018-11-07T05:27:15.719Z,11.83
2018-11-07T05:28:15.657Z,11.85
2018-11-07T05:29:15.630Z,11.85
2018-11-07T05:30:15.544Z,11.90
2018-11-07T05:31:15.484Z,11.86
2018-11-07T05:32:15.427Z,11.85
2018-11-07T05:33:15.384Z,11.86
2018-11-07T05:34:15.314Z,11.94
2018-11-07T05:35:15.259Z,11.96
2018-11-07T05:36:15.200Z,11.96
2018-11-07T05:37:15.143Z,11.86
2018-11-07T05:38:15.085Z,11.94
2018-11-07T05:39:15.030Z,11.89
2018-11-07T05:40:14.978Z,11.94
2018-11-07T05:41:14.994Z,11.87
2018-11-07T05:42:14.860Z,11.87
2018-11-07T05:43:14.805Z,11.87
2018-11-07T05:44:14.745Z,11.87
2018-11-07T05:45:14.689Z,11.85
2018-11-07T05:46:14.635Z,11.85
2018-11-07T05:47:14.575Z,11.83
2018-11-07T05:48:14.517Z,11.90
2018-11-07T05:49:14.523Z,11.89
2018-11-07T05:50:14.401Z,11.96
2018-11-07T05:51:14.346Z,11.82
2018-11-07T05:52:14.285Z,11.86
2018-11-07T05:53:14.240Z,11.85
2018-11-07T05:54:14.174Z,11.89
2018-11-07T05:55:14.120Z,11.93
2018-11-07T05:56:14.062Z,11.86
2018-11-07T05:57:14.000Z,11.87
2018-11-07T05:58:13.946Z,11.86
2018-11-07T05:59:13.896Z,11.85
2018-11-07T06:00:13.832Z,11.90
2018-11-07T06:01:13.774Z,11.86
2018-11-07T06:02:13.717Z,11.86
2018-11-07T06:03:13.662Z,11.72
2018-11-07T06:04:13.606Z,11.82
2018-11-07T06:05:13.546Z,11.86
2018-11-07T06:06:13.491Z,11.83
2018-11-07T06:07:13.469Z,11.83
2018-11-07T06:08:13.377Z,11.82
2018-11-07T06:09:13.319Z,11.86
2018-11-07T06:10:13.261Z,11.85
2018-11-07T06:11:13.205Z,11.86
2018-11-07T06:12:13.147Z,11.82
2018-11-07T06:13:13.091Z,11.78
2018-11-07T06:14:13.038Z,11.74
2018-11-07T06:15:12.978Z,11.80
2018-11-07T06:16:12.981Z,11.78
2018-11-07T06:17:12.862Z,11.75
2018-11-07T06:18:12.811Z,11.82
2018-11-07T06:19:12.750Z,11.83
2018-11-07T06:20:12.697Z,11.85
2018-11-07T06:21:12.635Z,11.85
2018-11-07T06:22:12.578Z,11.78
2018-11-07T06:23:12.521Z,11.82
2018-11-07T06:24:12.482Z,11.86
2018-11-07T06:25:12.408Z,11.78
2018-11-07T06:26:12.349Z,11.80
2018-11-07T06:27:12.294Z,11.82
2018-11-07T06:28:12.235Z,11.83
2018-11-07T06:29:12.186Z,11.82
2018-11-07T06:30:12.125Z,11.82
2018-11-07T06:31:12.064Z,11.83
2018-11-07T06:32:12.009Z,11.78
2018-11-07T06:33:11.950Z,11.85
2018-11-07T06:34:11.927Z,11.74
2018-11-07T06:35:11.839Z,11.77
2018-11-07T06:36:11.780Z,11.80
2018-11-07T06:37:11.721Z,11.83
2018-11-07T06:38:11.665Z,11.78
2018-11-07T06:39:11.607Z,11.77
2018-11-07T06:40:11.554Z,11.72
2018-11-07T06:41:11.498Z,11.82
2018-11-07T06:42:11.489Z,11.72
2018-11-07T06:43:11.379Z,11.74
2018-11-07T06:44:11.322Z,11.71
2018-11-07T06:45:11.268Z,11.70
2018-11-07T06:46:11.213Z,11.74
2018-11-07T06:47:11.155Z,11.68
2018-11-07T06:48:11.092Z,11.67
2018-11-07T06:49:11.041Z,11.67
2018-11-07T06:50:10.980Z,11.74
2018-11-07T06:51:10.921Z,11.75
2018-11-07T06:52:10.866Z,11.74
2018-11-07T06:53:10.815Z,11.74
2018-11-07T06:54:10.752Z,11.71
2018-11-07T06:55:10.716Z,11.65
2018-11-07T06:56:10.638Z,11.67
2018-11-07T06:57:10.578Z,11.65
2018-11-07T06:58:10.522Z,11.68
2018-11-07T06:59:10.467Z,11.70
2018-11-07T07:00:10.410Z,11.71
2018-11-07T07:01:10.356Z,11.71
2018-11-07T07:02:10.300Z,11.65
2018-11-07T07:03:10.239Z,11.72
2018-11-07T07:04:10.182Z,11.64
2018-11-07T07:05:10.125Z,11.68
2018-11-07T07:06:10.065Z,11.70
2018-11-07T07:07:10.009Z,11.65
2018-11-07T07:08:09.951Z,11.65
2018-11-07T07:09:09.893Z,11.68
2018-11-07T07:10:09.837Z,11.71
2018-11-07T07:11:09.780Z,11.67
2018-11-07T07:12:09.727Z,11.65
2018-11-07T07:13:09.664Z,11.67
2018-11-07T07:14:09.609Z,11.68
2018-11-07T07:15:09.564Z,11.70
2018-11-07T07:16:09.501Z,11.72
2018-11-07T07:17:09.445Z,11.72
2018-11-07T07:18:09.524Z,11.67
2018-11-07T07:19:09.322Z,11.62
2018-11-07T07:20:09.276Z,11.70
2018-11-07T07:21:09.207Z,11.68
2018-11-07T07:22:09.150Z,11.68
2018-11-07T07:23:09.095Z,11.72
2018-11-07T07:24:09.038Z,11.72
2018-11-07T07:25:08.978Z,11.59
2018-11-07T07:26:08.925Z,11.71
2018-11-07T07:27:08.873Z,11.65
2018-11-07T07:28:08.807Z,11.65
2018-11-07T07:29:08.757Z,11.67
2018-11-07T07:30:08.713Z,11.71
2018-11-07T07:31:08.637Z,11.72
2018-11-07T07:32:08.580Z,11.65
2018-11-07T07:33:08.576Z,11.70
2018-11-07T07:34:08.463Z,11.65
2018-11-07T07:35:08.413Z,11.71
2018-11-07T07:36:08.350Z,11.71
2018-11-07T07:37:08.296Z,11.68
2018-11-07T07:38:08.237Z,11.65
2018-11-07T07:39:08.181Z,11.71
2018-11-07T07:40:08.123Z,11.65
2018-11-07T07:41:08.068Z,11.68
2018-11-07T07:42:08.010Z,11.65
2018-11-07T07:43:07.950Z,11.72
2018-11-07T07:44:07.893Z,11.72
2018-11-07T07:45:07.839Z,11.72
2018-11-07T07:46:07.779Z,11.62
2018-11-07T07:47:07.722Z,11.65
2018-11-07T07:48:07.670Z,11.62
2018-11-07T07:49:07.620Z,11.64
2018-11-07T07:50:07.551Z,11.67
2018-11-07T07:51:07.493Z,11.67
2018-11-07T07:52:07.435Z,11.64
2018-11-07T07:53:07.448Z,11.62
2018-11-07T07:54:07.323Z,11.72
2018-11-07T07:55:07.264Z,11.68
2018-11-07T07:56:07.206Z,11.62
2018-11-07T07:57:07.151Z,11.71
2018-11-07T07:58:07.093Z,11.67
2018-11-07T07:59:07.035Z,11.64
2018-11-07T08:00:06.989Z,11.67
2018-11-07T08:01:06.920Z,11.62
2018-11-07T08:02:06.860Z,11.64
2018-11-07T08:03:06.808Z,11.67
2018-11-07T08:04:06.744Z,11.64
2018-11-07T08:05:06.689Z,11.70
2018-11-07T08:06:06.631Z,11.64
2018-11-07T08:07:06.603Z,11.67
2018-11-07T08:08:06.518Z,11.62
2018-11-07T08:09:06.462Z,11.65
2018-11-07T08:10:06.400Z,11.71
2018-11-07T08:11:06.346Z,11.68
2018-11-07T08:12:06.286Z,11.67
2018-11-07T08:13:06.228Z,11.72
2018-11-07T08:14:06.240Z,11.72
2018-11-07T08:15:06.114Z,11.67
2018-11-07T08:16:06.057Z,11.65
2018-11-07T08:17:06.001Z,11.70
2018-11-07T08:18:05.942Z,11.68
2018-11-07T08:19:05.885Z,11.67
2018-11-07T08:20:05.828Z,11.70
2018-11-07T08:21:05.820Z,11.70
2018-11-07T08:22:05.713Z,11.67
2018-11-07T08:23:05.656Z,11.70
2018-11-07T08:24:05.600Z,11.67
2018-11-07T08:25:05.552Z,11.71
2018-11-07T08:26:05.484Z,11.71
2018-11-07T08:27:05.427Z,11.67
2018-11-07T08:28:05.370Z,11.78
2018-11-07T08:29:05.358Z,11.67
2018-11-07T08:30:05.258Z,11.65
2018-11-07T08:31:05.198Z,11.71
2018-11-07T08:32:05.148Z,11.78
2018-11-07T08:33:05.086Z,11.65
2018-11-07T08:34:05.032Z,11.68
2018-11-07T08:35:04.969Z,11.78
2018-11-07T08:36:04.912Z,11.82
2018-11-07T08:37:04.853Z,11.74
2018-11-07T08:38:04.796Z,11.75
2018-11-07T08:39:04.739Z,11.72
2018-11-07T08:40:04.683Z,11.77
2018-11-07T08:41:04.639Z,11.75
2018-11-07T08:42:04.570Z,11.74
2018-11-07T08:43:04.511Z,11.74
2018-11-07T08:44:04.454Z,11.77
2018-11-07T08:45:04.396Z,11.78
2018-11-07T08:46:04.340Z,11.74
2018-11-07T08:47:04.282Z,11.80
2018-11-07T08:48:04.258Z,11.83
2018-11-07T08:49:04.180Z,11.83
2018-11-07T08:50:04.112Z,11.83
2018-11-07T08:51:04.054Z,11.82
2018-11-07T08:52:03.997Z,11.85
2018-11-07T08:53:03.941Z,11.87
2018-11-07T08:54:03.881Z,11.80
2018-11-07T08:55:03.888Z,11.75
2018-11-07T08:56:03.776Z,11.87
2018-11-07T08:57:03.712Z,11.85
2018-11-07T08:58:03.652Z,11.85
2018-11-07T08:59:03.596Z,11.86
2018-11-07T09:00:03.537Z,11.90
2018-11-07T09:01:03.483Z,11.85
2018-11-07T09:02:03.448Z,11.87
2018-11-07T09:03:03.370Z,11.93
2018-11-07T09:04:03.315Z,11.87
2018-11-07T09:05:03.252Z,11.86
2018-11-07T09:06:03.198Z,11.89
2018-11-07T09:07:03.138Z,11.89
2018-11-07T09:08:03.080Z,11.87
2018-11-07T09:09:03.028Z,11.86
2018-11-07T09:10:02.968Z,11.86
2018-11-07T09:11:02.909Z,11.85
2018-11-07T09:12:02.882Z,12.04
2018-11-07T09:13:02.797Z,11.83
2018-11-07T09:14:02.738Z,11.85
2018-11-07T09:15:02.682Z,11.94
2018-11-07T09:16:02.623Z,11.85
2018-11-07T09:17:02.565Z,11.94
2018-11-07T09:18:02.508Z,11.99
2018-11-07T09:19:02.450Z,11.97
2018-11-07T09:20:02.446Z,12.01
2018-11-07T09:21:02.336Z,11.94
2018-11-07T09:22:02.281Z,12.01
2018-11-07T09:23:02.220Z,12.02
2018-11-07T09:24:02.165Z,11.97
2018-11-07T09:25:02.111Z,12.02
2018-11-07T09:26:02.056Z,11.94
2018-11-07T09:27:01.997Z,12.04
2018-11-07T09:28:01.937Z,11.97
2018-11-07T09:29:01.888Z,11.93
2018-11-07T09:30:01.824Z,11.97
2018-11-07T09:31:01.767Z,11.93
2018-11-07T09:32:01.707Z,11.97
2018-11-07T09:33:01.649Z,11.96
2018-11-07T09:34:01.593Z,12.13
2018-11-07T09:35:01.538Z,11.99
2018-11-07T09:36:01.484Z,12.01
2018-11-07T09:37:01.423Z,12.04
2018-11-07T09:38:01.364Z,12.08
2018-11-07T09:39:01.307Z,11.97
2018-11-07T09:40:01.264Z,12.05
2018-11-07T09:41:01.192Z,11.97
2018-11-07T09:42:01.136Z,12.06
2018-11-07T09:43:01.078Z,11.99
2018-11-07T09:44:01.021Z,12.02
2018-11-07T09:45:00.964Z,12.02
2018-11-07T09:46:00.911Z,12.02
2018-11-07T09:47:00.850Z,12.05
2018-11-07T09:48:00.800Z,12.04
2018-11-07T09:49:00.737Z,12.06
2018-11-07T09:50:00.677Z,12.05
2018-11-07T09:51:00.621Z,12.12
2018-11-07T09:52:00.576Z,12.06
2018-11-07T09:53:00.506Z,12.12
2018-11-07T09:54:00.635Z,12.08
2018-11-07T09:55:00.400Z,12.06
2018-11-07T09:56:00.336Z,12.09
2018-11-07T09:57:00.278Z,12.15
2018-11-07T09:58:00.225Z,12.16
2018-11-07T09:59:00.168Z,12.16
2018-11-07T10:00:00.110Z,12.19
2018-11-07T10:01:00.057Z,12.11
2018-11-07T10:01:59.995Z,12.19
2018-11-07T10:02:59.944Z,12.09
2018-11-07T10:03:59.881Z,12.13
2018-11-07T10:04:59.824Z,12.11
2018-11-07T10:05:59.764Z,12.24
2018-11-07T10:06:59.712Z,12.15
2018-11-07T10:07:59.665Z,12.21
2018-11-07T10:08:59.594Z,12.16
2018-11-07T10:09:59.538Z,12.19
2018-11-07T10:10:59.479Z,12.23
2018-11-07T10:11:59.434Z,12.15
2018-11-07T10:12:59.365Z,12.23
2018-11-07T10:13:59.307Z,12.16
2018-11-07T10:14:59.252Z,12.13
2018-11-07T10:15:59.195Z,12.21
2018-11-07T10:16:59.136Z,12.16
2018-11-07T10:17:59.079Z,12.21
2018-11-07T10:18:59.026Z,12.23
2018-11-07T10:19:58.965Z,12.23
2018-11-07T10:20:58.907Z,12.24
2018-11-07T10:21:58.851Z,12.21
2018-11-07T10:22:58.794Z,12.21
2018-11-07T10:23:58.740Z,12.34
2018-11-07T10:24:58.680Z,12.26
2018-11-07T10:25:58.627Z,12.31
2018-11-07T10:26:58.639Z,12.29
2018-11-07T10:27:58.960Z,12.30
2018-11-07T10:28:58.689Z,12.34
2018-11-07T10:29:58.779Z,12.24
2018-11-07T10:30:58.339Z,12.29
2018-11-07T10:31:58.281Z,12.33
2018-11-07T10:32:58.224Z,12.31
2018-11-07T10:33:58.166Z,12.33
2018-11-07T10:34:58.112Z,12.34
2018-11-07T10:35:58.056Z,12.39
2018-11-07T10:36:57.998Z,12.33
2018-11-07T10:37:58.131Z,12.34
2018-11-07T10:38:57.960Z,12.33
2018-11-07T10:39:57.881Z,12.34
2018-11-07T10:40:57.769Z,12.38
2018-11-07T10:41:57.712Z,12.31
2018-11-07T10:42:57.655Z,12.31
2018-11-07T10:43:57.611Z,12.30
2018-11-07T10:44:57.541Z,12.33
2018-11-07T10:45:57.528Z,12.42
2018-11-07T10:46:58.292Z,12.45
2018-11-07T10:47:57.371Z,12.51
2018-11-07T10:48:57.366Z,12.44
2018-11-07T10:49:57.257Z,12.51
2018-11-07T10:50:57.199Z,12.52
2018-11-07T10:51:57.284Z,12.46
2018-11-07T10:52:57.085Z,12.48
2018-11-07T10:53:57.028Z,12.45
2018-11-07T10:54:56.973Z,12.44
2018-11-07T10:55:56.914Z,12.48
2018-11-07T10:56:56.857Z,12.42
2018-11-07T10:57:56.801Z,12.49
2018-11-07T10:58:56.744Z,12.46
2018-11-07T10:59:56.686Z,12.48
2018-11-07T11:00:56.631Z,12.44
2018-11-07T11:01:56.573Z,12.48
2018-11-07T11:02:56.517Z,12.48
2018-11-07T11:03:56.459Z,12.48
2018-11-07T11:04:56.431Z,12.52
2018-11-07T11:05:56.345Z,12.46
2018-11-07T11:06:56.290Z,12.60
2018-11-07T11:07:56.233Z,12.56
2018-11-07T11:08:56.190Z,12.57
2018-11-07T11:09:56.118Z,12.60
2018-11-07T11:10:56.061Z,12.60
2018-11-07T11:11:56.007Z,12.64
2018-11-07T11:12:55.947Z,12.52
2018-11-07T11:13:55.891Z,12.57
2018-11-07T11:14:55.834Z,12.59
2018-11-07T11:15:55.778Z,12.62
2018-11-07T11:16:55.729Z,12.60
2018-11-07T11:17:55.663Z,12.62
2018-11-07T11:18:55.607Z,12.59
2018-11-07T11:19:55.551Z,12.57
2018-11-07T11:20:55.492Z,12.67
2018-11-07T11:21:55.435Z,12.56
2018-11-07T11:22:55.381Z,12.63
2018-11-07T11:23:55.324Z,12.64
2018-11-07T11:24:55.268Z,12.63
2018-11-07T11:25:55.228Z,12.67
2018-11-07T11:26:55.152Z,12.62
2018-11-07T11:27:55.095Z,12.64
2018-11-07T11:28:55.036Z,12.67
2018-11-07T11:29:54.980Z,12.71
2018-11-07T11:30:54.925Z,12.66
2018-11-07T11:31:54.870Z,12.66
2018-11-07T11:32:54.813Z,12.67
2018-11-07T11:33:54.861Z,12.67
2018-11-07T11:34:54.770Z,12.70
2018-11-07T11:35:54.662Z,12.71
2018-11-07T11:36:54.588Z,12.70
2018-11-07T11:37:54.527Z,12.64
2018-11-07T11:38:54.472Z,12.79
2018-11-07T11:39:54.417Z,12.77
2018-11-07T11:40:54.363Z,12.77
2018-11-07T11:41:54.301Z,12.63
2018-11-07T11:42:54.242Z,12.78
2018-11-07T11:43:54.192Z,12.70
2018-11-07T11:44:54.128Z,12.77
2018-11-07T11:45:54.072Z,12.78
2018-11-07T11:46:54.014Z,12.74
2018-11-07T11:47:53.966Z,12.79
2018-11-07T11:48:53.906Z,12.74
2018-11-07T11:49:53.845Z,12.74
2018-11-07T11:50:53.791Z,12.79
2018-11-07T11:51:53.731Z,12.79
2018-11-07T11:52:53.674Z,12.81
2018-11-07T11:53:53.618Z,12.78
2018-11-07T11:54:53.562Z,12.79
2018-11-07T11:55:53.506Z,12.82
2018-11-07T11:56:53.449Z,12.78
2018-11-07T11:57:53.392Z,12.82
2018-11-07T11:58:53.458Z,12.82
2018-11-07T11:59:53.453Z,12.78
2018-11-07T12:00:53.219Z,12.77
2018-11-07T12:01:53.164Z,12.81
2018-11-07T12:02:53.107Z,12.84
2018-11-07T12:03:53.052Z,12.88
2018-11-07T12:04:52.996Z,12.82
2018-11-07T12:05:52.936Z,12.85
2018-11-07T12:06:52.882Z,12.87
2018-11-07T12:07:52.824Z,12.84
2018-11-07T12:08:52.822Z,12.92
2018-11-07T12:09:52.711Z,12.87
2018-11-07T12:10:52.653Z,12.87
2018-11-07T12:11:52.599Z,12.78
2018-11-07T12:12:52.551Z,12.85
2018-11-07T12:13:52.485Z,12.82
2018-11-07T12:14:52.428Z,12.95
2018-11-07T12:15:52.370Z,12.77
2018-11-07T12:16:52.316Z,12.92
2018-11-07T12:17:52.257Z,12.92
2018-11-07T12:18:52.199Z,12.84
2018-11-07T12:19:52.144Z,12.85
2018-11-07T12:20:52.087Z,12.93
2018-11-07T12:21:52.029Z,12.89
2018-11-07T12:22:51.972Z,12.95
2018-11-07T12:23:51.916Z,13.00
2018-11-07T12:24:51.859Z,12.99
2018-11-07T12:25:51.803Z,12.97
2018-11-07T12:26:51.772Z,12.99
2018-11-07T12:27:51.690Z,12.96
2018-11-07T12:28:51.638Z,12.93
2018-11-07T12:29:51.585Z,12.97
2018-11-07T12:30:51.524Z,12.96
2018-11-07T12:31:51.466Z,12.97
2018-11-07T12:32:51.405Z,12.97
2018-11-07T12:33:51.349Z,12.89
2018-11-07T12:34:51.294Z,13.12
2018-11-07T12:35:51.240Z,13.03
2018-11-07T12:36:51.179Z,13.00
2018-11-07T12:37:51.124Z,13.02
2018-11-07T12:38:51.067Z,13.03
2018-11-07T12:39:51.011Z,13.09
2018-11-07T12:40:50.953Z,13.09
2018-11-07T12:41:50.897Z,13.00
2018-11-07T12:42:50.897Z,13.11
2018-11-07T12:43:50.786Z,13.00
2018-11-07T12:44:50.726Z,13.00
2018-11-07T12:45:50.670Z,13.14
2018-11-07T12:46:50.617Z,13.12
2018-11-07T12:47:50.558Z,13.00
2018-11-07T12:48:50.504Z,13.12
2018-11-07T12:49:50.474Z,13.07
2018-11-07T12:50:50.391Z,13.07
2018-11-07T12:51:50.331Z,13.15